createdAt,value
2016-06-04T00:00:33.011Z,0
2016-06-04T00:01:32.966Z,0
2016-06-04T00:02:39.174Z,0
2016-06-04T00:03:33.018Z,0
2016-06-04T00:04:32.975Z,0
2016-06-04T00:05:32.914Z,0
2016-06-04T00:06:32.871Z,0
2016-06-04T00:07:32.858Z,0
2016-06-04T00:08:35.751Z,0
2016-06-04T00:09:35.769Z,0
2016-06-04T00:10:35.678Z,0
2016-06-04T00:11:36.352Z,0
2016-06-04T00:12:41.624Z,0
2016-06-04T00:13:38.548Z,0
2016-06-04T00:14:41.520Z,0
2016-06-04T00:15:44.647Z,0
2016-06-04T00:16:32.397Z,0
2016-06-04T00:17:41.621Z,0
2016-06-04T00:18:32.324Z,0
2016-06-04T00:19:32.326Z,0
2016-06-04T00:20:35.284Z,0
2016-06-04T00:21:38.257Z,0
2016-06-04T00:22:32.117Z,0
2016-06-04T00:23:32.259Z,0
2016-06-04T00:24:38.062Z,0
2016-06-04T00:25:34.984Z,0
2016-06-04T00:26:35.471Z,0
2016-06-04T00:27:31.895Z,0
2016-06-04T00:28:37.850Z,0
2016-06-04T00:29:31.636Z,0
2016-06-04T00:30:31.747Z,0
2016-06-04T00:31:40.924Z,0
2016-06-04T00:32:40.677Z,0
2016-06-04T00:33:32.318Z,0
2016-06-04T00:34:34.586Z,0
2016-06-04T00:35:34.542Z,0
2016-06-04T00:36:31.529Z,0
2016-06-04T00:37:34.422Z,0
2016-06-04T00:38:37.394Z,0
2016-06-04T00:39:31.178Z,0
2016-06-04T00:40:31.805Z,0
2016-06-04T00:41:31.668Z,0
2016-06-04T00:42:34.452Z,0
2016-06-04T00:43:31.282Z,0
2016-06-04T00:44:31.426Z,0
2016-06-04T00:45:34.084Z,0
2016-06-04T00:46:31.025Z,0
2016-06-04T00:47:31.496Z,0
2016-06-04T00:48:33.952Z,0
2016-06-04T00:49:33.892Z,0
2016-06-04T00:50:30.817Z,0
2016-06-04T00:51:31.007Z,0
2016-06-04T00:52:30.744Z,0
2016-06-04T00:53:33.732Z,0
2016-06-04T00:54:33.656Z,0
2016-06-04T00:55:30.845Z,0
2016-06-04T00:56:37.145Z,0
2016-06-04T00:57:30.726Z,0
2016-06-04T00:58:33.511Z,0
2016-06-04T00:59:33.837Z,0
2016-06-04T01:00:30.483Z,0
2016-06-04T01:01:30.425Z,0
2016-06-04T01:02:30.899Z,0
2016-06-04T01:03:33.388Z,0
2016-06-04T01:04:30.651Z,0
2016-06-04T01:05:33.791Z,0
2016-06-04T01:06:33.274Z,0
2016-06-04T01:07:37.726Z,0
2016-06-04T01:08:30.210Z,0
2016-06-04T01:09:36.189Z,0
2016-06-04T01:10:43.282Z,0
2016-06-04T01:11:37.907Z,0
2016-06-04T01:12:30.539Z,0
2016-06-04T01:13:29.999Z,0
2016-06-04T01:14:32.989Z,0
2016-06-04T01:15:36.118Z,0
2016-06-04T01:16:32.950Z,0
2016-06-04T01:17:30.314Z,0
2016-06-04T01:18:32.803Z,0
2016-06-04T01:19:36.087Z,0
2016-06-04T01:20:29.684Z,0
2016-06-04T01:21:32.766Z,0
2016-06-04T01:22:32.816Z,0
2016-06-04T01:23:32.569Z,0
2016-06-04T01:24:32.697Z,0
2016-06-04T01:25:38.700Z,0
2016-06-04T01:26:41.656Z,0
2016-06-04T01:27:29.612Z,0
2016-06-04T01:28:29.303Z,0
2016-06-04T01:29:32.493Z,0
2016-06-04T01:30:29.215Z,0
2016-06-04T01:31:32.468Z,0
2016-06-04T01:32:29.126Z,0
2016-06-04T01:33:28.957Z,0
2016-06-04T01:34:29.037Z,0
2016-06-04T01:35:32.057Z,0
2016-06-04T01:36:31.934Z,0
2016-06-04T01:37:28.953Z,0
2016-06-04T01:38:28.893Z,0
2016-06-04T01:39:28.786Z,0
2016-06-04T01:40:28.758Z,0
2016-06-04T01:41:31.745Z,0
2016-06-04T01:42:34.716Z,0
2016-06-04T01:43:34.656Z,0
2016-06-04T01:44:31.612Z,0
2016-06-04T01:45:37.567Z,0
2016-06-04T01:46:40.492Z,0
2016-06-04T01:47:34.730Z,0
2016-06-04T01:48:31.389Z,0
2016-06-04T01:49:28.328Z,0
2016-06-04T01:50:34.613Z,0
2016-06-04T01:51:28.255Z,0
2016-06-04T01:52:28.211Z,0
2016-06-04T01:53:28.152Z,0
2016-06-04T01:54:28.420Z,0
2016-06-04T01:55:28.438Z,0
2016-06-04T01:56:29.707Z,0
2016-06-04T01:57:31.663Z,0
2016-06-04T01:58:36.947Z,0
2016-06-04T01:59:27.887Z,0
2016-06-04T02:00:27.826Z,0
2016-06-04T02:01:27.924Z,0
2016-06-04T02:02:33.770Z,0
2016-06-04T02:03:27.694Z,0
2016-06-04T02:04:30.948Z,0
2016-06-04T02:05:27.653Z,0
2016-06-04T02:06:30.530Z,0
2016-06-04T02:07:27.846Z,0
2016-06-04T02:08:30.458Z,0
2016-06-04T02:09:33.631Z,0
2016-06-04T02:10:30.557Z,0
2016-06-04T02:11:30.357Z,0
2016-06-04T02:12:36.264Z,0
2016-06-04T02:13:27.222Z,0
2016-06-04T02:14:27.005Z,0
2016-06-04T02:15:30.352Z,0
2016-06-04T02:16:30.135Z,0
2016-06-04T02:17:27.044Z,0
2016-06-04T02:18:26.985Z,0
2016-06-04T02:19:30.003Z,0
2016-06-04T02:20:29.911Z,0
2016-06-04T02:21:30.055Z,0
2016-06-04T02:22:26.996Z,0
2016-06-04T02:23:26.764Z,0
2016-06-04T02:24:26.736Z,0
2016-06-04T02:25:32.863Z,0
2016-06-04T02:26:30.084Z,0
2016-06-04T02:27:29.555Z,0
2016-06-04T02:28:30.183Z,0
2016-06-04T02:29:29.873Z,0
2016-06-04T02:30:26.423Z,0
2016-06-04T02:31:29.379Z,0
2016-06-04T02:32:29.538Z,0
2016-06-04T02:33:26.275Z,0
2016-06-04T02:34:29.074Z,0
2016-06-04T02:35:26.187Z,0
2016-06-04T02:36:26.143Z,0
2016-06-04T02:37:29.411Z,0
2016-06-04T02:38:29.038Z,0
2016-06-04T02:39:26.042Z,0
2016-06-04T02:40:35.372Z,0
2016-06-04T02:41:33.187Z,0
2016-06-04T02:42:26.268Z,0
2016-06-04T02:43:26.270Z,0
2016-06-04T02:44:25.773Z,0
2016-06-04T02:45:25.729Z,0
2016-06-04T02:46:37.685Z,0
2016-06-04T02:47:28.625Z,0
2016-06-04T02:48:25.799Z,0
2016-06-04T02:49:28.396Z,0
2016-06-04T02:50:31.711Z,0
2016-06-04T02:51:28.886Z,0
2016-06-04T02:52:28.529Z,0
2016-06-04T02:53:28.782Z,0
2016-06-04T02:54:31.316Z,0
2016-06-04T02:55:25.241Z,0
2016-06-04T02:56:31.462Z,0
2016-06-04T02:57:28.152Z,0
2016-06-04T02:58:31.138Z,0
2016-06-04T02:59:25.063Z,0
2016-06-04T03:00:25.426Z,0
2016-06-04T03:01:24.976Z,0
2016-06-04T03:02:27.915Z,0
2016-06-04T03:03:33.902Z,0
2016-06-04T03:04:24.843Z,0
2016-06-04T03:05:24.846Z,0
2016-06-04T03:06:24.785Z,0
2016-06-04T03:07:24.726Z,0
2016-06-04T03:08:24.620Z,0
2016-06-04T03:09:24.793Z,0
2016-06-04T03:10:27.406Z,0
2016-06-04T03:11:25.517Z,0
2016-06-04T03:12:24.458Z,0
2016-06-04T03:13:24.242Z,0
2016-06-04T03:14:24.370Z,0
2016-06-04T03:15:24.388Z,0
2016-06-04T03:16:27.281Z,0
2016-06-04T03:17:27.269Z,0
2016-06-04T03:18:24.192Z,0
2016-06-04T03:19:27.150Z,0
2016-06-04T03:20:30.120Z,0
2016-06-04T03:21:27.919Z,0
2016-06-04T03:22:28.751Z,0
2016-06-04T03:23:27.206Z,0
2016-06-04T03:24:26.897Z,0
2016-06-04T03:25:23.852Z,0
2016-06-04T03:26:24.511Z,0
2016-06-04T03:27:30.124Z,0
2016-06-04T03:28:23.720Z,0
2016-06-04T03:29:23.676Z,0
2016-06-04T03:30:23.647Z,0
2016-06-04T03:31:23.619Z,0
2016-06-04T03:32:23.935Z,0
2016-06-04T03:33:23.498Z,0
2016-06-04T03:34:26.440Z,0
2016-06-04T03:35:23.410Z,0
2016-06-04T03:36:26.413Z,0
2016-06-04T03:37:26.275Z,0
2016-06-04T03:38:23.590Z,0
2016-06-04T03:39:26.406Z,0
2016-06-04T03:40:23.002Z,0
2016-06-04T03:41:24.317Z,0
2016-06-04T03:42:23.273Z,0
2016-06-04T03:43:26.088Z,0
2016-06-04T03:44:22.981Z,0
2016-06-04T03:45:22.953Z,0
2016-06-04T03:46:22.893Z,0
2016-06-04T03:47:23.053Z,5
2016-06-04T03:48:22.883Z,5
2016-06-04T03:49:22.964Z,5
2016-06-04T03:50:22.685Z,5
2016-06-04T03:51:25.656Z,5
2016-06-04T03:52:22.596Z,5
2016-06-04T03:53:22.662Z,5
2016-06-04T03:54:22.524Z,5
2016-06-04T03:55:22.699Z,5
2016-06-04T03:56:29.591Z,5
2016-06-04T03:57:22.579Z,5
2016-06-04T03:58:22.316Z,5
2016-06-04T03:59:22.272Z,5
2016-06-04T04:00:22.196Z,5
2016-06-04T04:01:22.199Z,5
2016-06-04T04:02:22.327Z,5
2016-06-04T04:03:22.080Z,5
2016-06-04T04:04:25.035Z,5
2016-06-04T04:05:21.976Z,5
2016-06-04T04:06:22.026Z,5
2016-06-04T04:07:21.887Z,5
2016-06-04T04:08:30.937Z,5
2016-06-04T04:09:22.001Z,5
2016-06-04T04:10:21.817Z,5
2016-06-04T04:11:24.757Z,10
2016-06-04T04:12:21.651Z,10
2016-06-04T04:13:21.622Z,10
2016-06-04T04:14:24.593Z,10
2016-06-04T04:15:30.565Z,10
2016-06-04T04:16:24.489Z,10
2016-06-04T04:17:21.508Z,10
2016-06-04T04:18:21.417Z,10
2016-06-04T04:19:21.356Z,10
2016-06-04T04:20:30.391Z,10
2016-06-04T04:21:21.300Z,10
2016-06-04T04:22:21.194Z,10
2016-06-04T04:23:21.180Z,10
2016-06-04T04:24:21.105Z,10
2016-06-04T04:25:21.123Z,10
2016-06-04T04:26:21.236Z,10
2016-06-04T04:27:23.972Z,10
2016-06-04T04:28:20.913Z,10
2016-06-04T04:29:23.947Z,10
2016-06-04T04:30:29.840Z,10
2016-06-04T04:31:21.185Z,10
2016-06-04T04:32:26.845Z,10
2016-06-04T04:33:20.723Z,10
2016-06-04T04:34:20.663Z,10
2016-06-04T04:35:23.618Z,10
2016-06-04T04:36:20.762Z,10
2016-06-04T04:37:20.718Z,10
2016-06-04T04:38:20.454Z,10
2016-06-04T04:39:20.411Z,10
2016-06-04T04:40:20.257Z,10
2016-06-04T04:41:21.823Z,10
2016-06-04T04:42:20.293Z,10
2016-06-04T04:43:20.484Z,10
2016-06-04T04:44:20.268Z,10
2016-06-04T04:45:20.146Z,10
2016-06-04T04:46:23.226Z,15
2016-06-04T04:47:20.042Z,10
2016-06-04T04:48:26.013Z,15
2016-06-04T04:49:20.141Z,15
2016-06-04T04:50:25.925Z,15
2016-06-04T04:51:23.068Z,15
2016-06-04T04:52:20.039Z,15
2016-06-04T04:53:22.761Z,20
2016-06-04T04:54:22.701Z,20
2016-06-04T04:55:22.689Z,20
2016-06-04T04:56:22.675Z,20
2016-06-04T04:57:19.912Z,20
2016-06-04T04:58:25.666Z,20
2016-06-04T04:59:24.089Z,20
2016-06-04T05:00:19.654Z,20
2016-06-04T05:01:25.407Z,20
2016-06-04T05:02:19.597Z,20
2016-06-04T05:03:22.366Z,20
2016-06-04T05:04:22.307Z,20
2016-06-04T05:05:22.246Z,20
2016-06-04T05:06:22.187Z,20
2016-06-04T05:07:23.752Z,20
2016-06-04T05:08:22.067Z,20
2016-06-04T05:09:22.132Z,20
2016-06-04T05:10:21.979Z,20
2016-06-04T05:11:19.731Z,15
2016-06-04T05:12:21.921Z,20
2016-06-04T05:13:22.112Z,20
2016-06-04T05:14:18.834Z,20
2016-06-04T05:15:21.992Z,20
2016-06-04T05:16:22.322Z,20
2016-06-04T05:17:24.873Z,20
2016-06-04T05:18:21.625Z,20
2016-06-04T05:19:19.159Z,20
2016-06-04T05:20:18.771Z,25
2016-06-04T05:21:21.493Z,30
2016-06-04T05:22:21.417Z,35
2016-06-04T05:23:18.372Z,35
2016-06-04T05:24:18.767Z,35
2016-06-04T05:25:18.284Z,40
2016-06-04T05:26:22.287Z,40
2016-06-04T05:27:18.571Z,35
2016-06-04T05:28:21.136Z,30
2016-06-04T05:29:18.155Z,30
2016-06-04T05:30:19.360Z,30
2016-06-04T05:31:18.004Z,30
2016-06-04T05:32:17.928Z,30
2016-06-04T05:33:17.744Z,35
2016-06-04T05:34:17.902Z,45
2016-06-04T05:35:17.796Z,35
2016-06-04T05:36:17.767Z,35
2016-06-04T05:37:20.958Z,40
2016-06-04T05:38:21.085Z,40
2016-06-04T05:39:23.760Z,45
2016-06-04T05:40:17.607Z,45
2016-06-04T05:41:20.499Z,45
2016-06-04T05:42:17.487Z,40
2016-06-04T05:43:20.457Z,40
2016-06-04T05:44:17.445Z,40
2016-06-04T05:45:17.526Z,40
2016-06-04T05:46:17.434Z,40
2016-06-04T05:47:17.250Z,40
2016-06-04T05:48:17.268Z,40
2016-06-04T05:49:17.365Z,35
2016-06-04T05:50:23.117Z,35
2016-06-04T05:51:20.104Z,40
2016-06-04T05:52:17.232Z,40
2016-06-04T05:53:20.016Z,40
2016-06-04T05:54:22.941Z,40
2016-06-04T05:55:17.147Z,45
2016-06-04T05:56:23.149Z,45
2016-06-04T05:57:16.792Z,45
2016-06-04T05:58:26.014Z,45
2016-06-04T05:59:16.705Z,40
2016-06-04T06:00:16.753Z,40
2016-06-04T06:01:17.131Z,40
2016-06-04T06:02:16.571Z,40
2016-06-04T06:03:19.544Z,40
2016-06-04T06:04:22.530Z,40
2016-06-04T06:05:19.439Z,45
2016-06-04T06:06:16.598Z,45
2016-06-04T06:07:22.382Z,50
2016-06-04T06:08:16.290Z,50
2016-06-04T06:09:16.262Z,55
2016-06-04T06:10:16.202Z,55
2016-06-04T06:11:23.252Z,50
2016-06-04T06:12:16.098Z,50
2016-06-04T06:13:19.085Z,45
2016-06-04T06:14:16.026Z,45
2016-06-04T06:15:16.029Z,45
2016-06-04T06:16:15.921Z,50
2016-06-04T06:17:15.909Z,55
2016-06-04T06:18:15.849Z,60
2016-06-04T06:19:15.773Z,60
2016-06-04T06:20:18.745Z,60
2016-06-04T06:21:15.701Z,60
2016-06-04T06:22:22.297Z,70
2016-06-04T06:23:18.800Z,75
2016-06-04T06:24:18.942Z,75
2016-06-04T06:25:18.524Z,65
2016-06-04T06:26:15.934Z,60
2016-06-04T06:27:15.655Z,55
2016-06-04T06:28:24.438Z,60
2016-06-04T06:29:15.300Z,60
2016-06-04T06:30:18.334Z,60
2016-06-04T06:31:15.430Z,55
2016-06-04T06:32:21.199Z,60
2016-06-04T06:33:21.155Z,60
2016-06-04T06:34:21.189Z,55
2016-06-04T06:35:15.035Z,55
2016-06-04T06:36:27.022Z,60
2016-06-04T06:37:30.135Z,60
2016-06-04T06:38:17.934Z,65
2016-06-04T06:39:23.874Z,70
2016-06-04T06:40:15.361Z,65
2016-06-04T06:41:19.113Z,65
2016-06-04T06:42:20.726Z,65
2016-06-04T06:43:14.838Z,60
2016-06-04T06:44:17.621Z,60
2016-06-04T06:45:14.687Z,70
2016-06-04T06:46:23.784Z,65
2016-06-04T06:47:14.537Z,60
2016-06-04T06:48:14.429Z,60
2016-06-04T06:49:17.432Z,60
2016-06-04T06:50:17.575Z,60
2016-06-04T06:51:14.345Z,50
2016-06-04T06:52:14.253Z,45
2016-06-04T06:53:17.240Z,40
2016-06-04T06:54:18.492Z,45
2016-06-04T06:55:16.980Z,45
2016-06-04T06:56:14.592Z,50
2016-06-04T06:57:13.906Z,75
2016-06-04T06:58:13.988Z,75
2016-06-04T06:59:16.975Z,85
2016-06-04T07:00:17.306Z,90
2016-06-04T07:01:13.840Z,110
2016-06-04T07:02:13.889Z,120
2016-06-04T07:03:13.752Z,130
2016-06-04T07:04:13.738Z,140
2016-06-04T07:05:13.694Z,135
2016-06-04T07:06:13.650Z,135
2016-06-04T07:07:13.966Z,135
2016-06-04T07:08:20.186Z,140
2016-06-04T07:09:19.704Z,140
2016-06-04T07:10:16.473Z,145
2016-06-04T07:11:17.335Z,130
2016-06-04T07:12:14.353Z,120
2016-06-04T07:13:16.309Z,110
2016-06-04T07:14:13.485Z,100
2016-06-04T07:15:13.252Z,95
2016-06-04T07:16:16.411Z,95
2016-06-04T07:17:22.164Z,90
2016-06-04T07:18:22.182Z,85
2016-06-04T07:19:22.091Z,75
2016-06-04T07:20:16.203Z,55
2016-06-04T07:21:22.237Z,45
2016-06-04T07:22:13.131Z,35
2016-06-04T07:23:19.071Z,40
2016-06-04T07:24:18.870Z,40
2016-06-04T07:25:12.810Z,50
2016-06-04T07:26:12.970Z,55
2016-06-04T07:27:18.784Z,65
2016-06-04T07:28:12.819Z,60
2016-06-04T07:29:12.618Z,65
2016-06-04T07:30:21.605Z,70
2016-06-04T07:31:15.952Z,85
2016-06-04T07:32:21.485Z,100
2016-06-04T07:33:12.457Z,90
2016-06-04T07:34:12.616Z,90
2016-06-04T07:35:12.869Z,90
2016-06-04T07:36:18.746Z,70
2016-06-04T07:37:12.561Z,65
2016-06-04T07:38:21.205Z,65
2016-06-04T07:39:15.161Z,75
2016-06-04T07:40:15.085Z,85
2016-06-04T07:41:12.572Z,85
2016-06-04T07:42:14.888Z,95
2016-06-04T07:43:18.156Z,85
2016-06-04T07:44:11.580Z,85
2016-06-04T07:45:11.879Z,90
2016-06-04T07:46:14.835Z,105
2016-06-04T07:47:11.979Z,100
2016-06-04T07:48:14.732Z,95
2016-06-04T07:49:14.531Z,90
2016-06-04T07:50:11.643Z,95
2016-06-04T07:51:11.568Z,100
2016-06-04T07:52:11.554Z,105
2016-06-04T07:53:11.511Z,115
2016-06-04T07:54:11.466Z,135
2016-06-04T07:55:12.001Z,145
2016-06-04T07:56:11.675Z,135
2016-06-04T07:57:11.693Z,150
2016-06-04T07:58:11.696Z,155
2016-06-04T07:59:14.230Z,140
2016-06-04T08:00:20.186Z,130
2016-06-04T08:01:11.564Z,135
2016-06-04T08:02:14.081Z,145
2016-06-04T08:03:14.459Z,155
2016-06-04T08:04:16.978Z,155
2016-06-04T08:05:14.183Z,175
2016-06-04T08:06:10.905Z,205
2016-06-04T08:07:11.127Z,205
2016-06-04T08:08:13.677Z,190
2016-06-04T08:09:13.866Z,165
2016-06-04T08:10:13.932Z,165
2016-06-04T08:11:10.668Z,150
2016-06-04T08:12:10.624Z,130
2016-06-04T08:13:10.736Z,145
2016-06-04T08:14:13.582Z,150
2016-06-04T08:15:10.492Z,140
2016-06-04T08:16:10.432Z,130
2016-06-04T08:17:13.404Z,135
2016-06-04T08:18:22.406Z,120
2016-06-04T08:19:10.518Z,110
2016-06-04T08:20:10.912Z,110
2016-06-04T08:21:10.226Z,110
2016-06-04T08:22:16.417Z,95
2016-06-04T08:23:10.137Z,100
2016-06-04T08:24:13.376Z,105
2016-06-04T08:25:13.050Z,105
2016-06-04T08:26:13.475Z,110
2016-06-04T08:27:13.306Z,110
2016-06-04T08:28:13.042Z,110
2016-06-04T08:29:12.764Z,110
2016-06-04T08:30:09.813Z,110
2016-06-04T08:31:09.800Z,110
2016-06-04T08:32:09.725Z,110
2016-06-04T08:33:09.868Z,135
2016-06-04T08:34:09.684Z,140
2016-06-04T08:35:09.655Z,150
2016-06-04T08:36:09.610Z,150
2016-06-04T08:37:09.550Z,150
2016-06-04T08:38:18.819Z,175
2016-06-04T08:39:20.680Z,180
2016-06-04T08:40:15.387Z,180
2016-06-04T08:41:15.343Z,185
2016-06-04T08:42:09.407Z,180
2016-06-04T08:43:10.270Z,185
2016-06-04T08:44:09.211Z,165
2016-06-04T08:45:15.182Z,160
2016-06-04T08:46:15.154Z,170
2016-06-04T08:47:12.124Z,170
2016-06-04T08:48:11.768Z,155
2016-06-04T08:49:12.021Z,160
2016-06-04T08:50:12.273Z,120
2016-06-04T08:51:09.151Z,125
2016-06-04T08:52:12.388Z,130
2016-06-04T08:53:18.109Z,130
2016-06-04T08:54:14.831Z,125
2016-06-04T08:55:12.412Z,110
2016-06-04T08:56:11.664Z,100
2016-06-04T08:57:08.761Z,120
2016-06-04T08:58:08.920Z,115
2016-06-04T08:59:09.234Z,120
2016-06-04T09:00:08.550Z,120
2016-06-04T09:01:08.459Z,115
2016-06-04T09:02:11.243Z,115
2016-06-04T09:03:08.574Z,100
2016-06-04T09:04:14.436Z,100
2016-06-04T09:05:08.330Z,105
2016-06-04T09:06:11.520Z,95
2016-06-04T09:07:11.194Z,105
2016-06-04T09:08:08.181Z,125
2016-06-04T09:09:11.153Z,145
2016-06-04T09:10:11.108Z,160
2016-06-04T09:11:08.080Z,165
2016-06-04T09:12:08.489Z,130
2016-06-04T09:13:09.163Z,120
2016-06-04T09:14:11.088Z,125
2016-06-04T09:15:10.934Z,145
2016-06-04T09:16:11.141Z,135
2016-06-04T09:17:07.596Z,150
2016-06-04T09:18:10.707Z,155
2016-06-04T09:19:10.868Z,165
2016-06-04T09:20:16.995Z,145
2016-06-04T09:21:07.607Z,135
2016-06-04T09:22:07.376Z,125
2016-06-04T09:23:16.487Z,125
2016-06-04T09:24:13.459Z,110
2016-06-04T09:25:19.899Z,110
2016-06-04T09:26:07.401Z,115
2016-06-04T09:27:07.514Z,110
2016-06-04T09:28:10.484Z,100
2016-06-04T09:29:07.082Z,90
2016-06-04T09:30:10.256Z,90
2016-06-04T09:31:10.117Z,90
2016-06-04T09:32:06.933Z,105
2016-06-04T09:33:10.531Z,125
2016-06-04T09:34:07.079Z,120
2016-06-04T09:35:07.145Z,115
2016-06-04T09:36:21.913Z,115
2016-06-04T09:37:10.056Z,110
2016-06-04T09:38:12.794Z,110
2016-06-04T09:39:09.764Z,110
2016-06-04T09:40:10.267Z,105
2016-06-04T09:41:09.692Z,100
2016-06-04T09:42:06.648Z,110
2016-06-04T09:43:15.682Z,140
2016-06-04T09:44:07.700Z,140
2016-06-04T09:45:24.515Z,140
2016-06-04T09:46:09.533Z,145
2016-06-04T09:47:09.396Z,155
2016-06-04T09:48:09.366Z,155
2016-06-04T09:49:06.307Z,145
2016-06-04T09:50:06.154Z,135
2016-06-04T09:51:09.266Z,130
2016-06-04T09:52:06.190Z,130
2016-06-04T09:53:09.223Z,125
2016-06-04T09:54:09.102Z,130
2016-06-04T09:55:06.198Z,135
2016-06-04T09:56:06.232Z,140
2016-06-04T09:57:08.969Z,145
2016-06-04T09:58:05.660Z,140
2016-06-04T09:59:09.240Z,135
2016-06-04T10:00:05.868Z,135
2016-06-04T10:01:05.808Z,130
2016-06-04T10:02:05.592Z,120
2016-06-04T10:03:08.782Z,105
2016-06-04T10:04:08.660Z,100
2016-06-04T10:05:08.851Z,100
2016-06-04T10:06:05.664Z,105
2016-06-04T10:07:11.600Z,110
2016-06-04T10:08:08.615Z,105
2016-06-04T10:09:05.583Z,110
2016-06-04T10:10:08.570Z,120
2016-06-04T10:11:14.568Z,150
2016-06-04T10:12:08.721Z,145
2016-06-04T10:13:14.828Z,155
2016-06-04T10:14:09.012Z,160
2016-06-04T10:15:11.568Z,150
2016-06-04T10:16:05.177Z,175
2016-06-04T10:17:05.293Z,185
2016-06-04T10:18:11.491Z,180
2016-06-04T10:19:05.429Z,155
2016-06-04T10:20:05.420Z,125
2016-06-04T10:21:14.132Z,90
2016-06-04T10:22:11.464Z,85
2016-06-04T10:23:10.953Z,80
2016-06-04T10:24:17.083Z,75
2016-06-04T10:25:08.101Z,75
2016-06-04T10:26:05.008Z,75
2016-06-04T10:27:08.108Z,80
2016-06-04T10:28:08.407Z,105
2016-06-04T10:29:14.442Z,115
2016-06-04T10:30:07.741Z,115
2016-06-04T10:31:07.947Z,115
2016-06-04T10:32:07.669Z,115
2016-06-04T10:33:10.656Z,115
2016-06-04T10:34:13.440Z,120
2016-06-04T10:35:07.412Z,125
2016-06-04T10:36:10.695Z,110
2016-06-04T10:37:07.463Z,110
2016-06-04T10:38:10.435Z,120
2016-06-04T10:39:10.454Z,135
2016-06-04T10:40:10.331Z,155
2016-06-04T10:41:07.459Z,165
2016-06-04T10:42:07.462Z,175
2016-06-04T10:43:10.574Z,185
2016-06-04T10:44:04.199Z,195
2016-06-04T10:45:07.186Z,215
2016-06-04T10:46:07.064Z,200
2016-06-04T10:47:04.503Z,190
2016-06-04T10:48:03.991Z,175
2016-06-04T10:49:06.806Z,175
2016-06-04T10:50:03.902Z,175
2016-06-04T10:51:03.811Z,165
2016-06-04T10:52:03.705Z,165
2016-06-04T10:53:06.754Z,160
2016-06-04T10:54:06.756Z,125
2016-06-04T10:55:12.886Z,120
2016-06-04T10:56:06.574Z,165
2016-06-04T10:57:05.014Z,215
2016-06-04T10:58:06.767Z,225
2016-06-04T10:59:09.492Z,225
2016-06-04T11:00:06.633Z,225
2016-06-04T11:01:09.653Z,220
2016-06-04T11:02:09.781Z,225
2016-06-04T11:03:12.347Z,240
2016-06-04T11:04:03.363Z,210
2016-06-04T11:05:06.099Z,220
2016-06-04T11:06:06.414Z,190
2016-06-04T11:07:06.166Z,210
2016-06-04T11:08:06.138Z,205
2016-06-04T11:09:06.485Z,215
2016-06-04T11:10:02.987Z,220
2016-06-04T11:11:08.992Z,210
2016-06-04T11:12:08.980Z,205
2016-06-04T11:13:15.514Z,195
2016-06-04T11:14:06.435Z,190
2016-06-04T11:15:08.813Z,180
2016-06-04T11:16:02.957Z,155
2016-06-04T11:17:09.509Z,150
2016-06-04T11:18:08.712Z,140
2016-06-04T11:19:05.621Z,150
2016-06-04T11:20:05.609Z,150
2016-06-04T11:21:02.751Z,150
2016-06-04T11:22:02.364Z,150
2016-06-04T11:23:08.506Z,150
2016-06-04T11:24:08.400Z,150
2016-06-04T11:25:08.622Z,165
2016-06-04T11:26:05.375Z,175
2016-06-04T11:27:02.799Z,180
2016-06-04T11:28:08.833Z,195
2016-06-04T11:29:02.430Z,180
2016-06-04T11:30:14.216Z,205
2016-06-04T11:31:05.403Z,205
2016-06-04T11:32:05.094Z,205
2016-06-04T11:33:02.033Z,175
2016-06-04T11:34:01.864Z,180
2016-06-04T11:35:04.961Z,220
2016-06-04T11:36:10.935Z,225
2016-06-04T11:37:04.872Z,220
2016-06-04T11:38:07.843Z,235
2016-06-04T11:39:04.800Z,260
2016-06-04T11:40:04.974Z,275
2016-06-04T11:41:04.915Z,275
2016-06-04T11:42:08.073Z,275
2016-06-04T11:43:07.638Z,290
2016-06-04T11:44:07.625Z,280
2016-06-04T11:45:10.975Z,260
2016-06-04T11:46:04.428Z,240
2016-06-04T11:47:01.461Z,235
2016-06-04T11:48:07.356Z,200
2016-06-04T11:49:04.374Z,175
2016-06-04T11:50:01.345Z,195
2016-06-04T11:51:01.129Z,200
2016-06-04T11:52:04.507Z,165
2016-06-04T11:53:07.072Z,165
2016-06-04T11:54:04.340Z,155
2016-06-04T11:55:01.140Z,150
2016-06-04T11:56:01.283Z,150
2016-06-04T11:57:02.457Z,190
2016-06-04T11:58:01.023Z,205
2016-06-04T11:59:06.963Z,195
2016-06-04T12:00:06.903Z,200
2016-06-04T12:01:03.750Z,185
2016-06-04T12:02:06.939Z,215
2016-06-04T12:03:06.692Z,255
2016-06-04T12:04:00.788Z,280
2016-06-04T12:05:00.933Z,275
2016-06-04T12:06:00.685Z,245
2016-06-04T12:07:03.953Z,255
2016-06-04T12:08:00.612Z,225
2016-06-04T12:09:00.616Z,285
2016-06-04T12:10:00.524Z,290
2016-06-04T12:11:00.464Z,300
2016-06-04T12:12:00.451Z,320
2016-06-04T12:13:00.360Z,350
2016-06-04T12:14:00.207Z,345
2016-06-04T12:15:00.303Z,330
2016-06-04T12:16:00.274Z,335
2016-06-04T12:17:00.418Z,325
2016-06-04T12:18:00.170Z,325
2016-06-04T12:19:00.110Z,325
2016-06-04T12:20:00.082Z,330
2016-06-04T12:21:00.226Z,335
2016-06-04T12:22:03.009Z,340
2016-06-04T12:22:59.965Z,365
2016-06-04T12:24:06.092Z,345
2016-06-04T12:25:02.861Z,345
2016-06-04T12:25:59.895Z,345
2016-06-04T12:27:03.038Z,335
2016-06-04T12:28:00.448Z,345
2016-06-04T12:29:00.403Z,295
2016-06-04T12:30:02.719Z,300
2016-06-04T12:30:59.658Z,320
2016-06-04T12:32:06.083Z,335
2016-06-04T12:33:02.555Z,355
2016-06-04T12:34:02.525Z,355
2016-06-04T12:35:02.669Z,370
2016-06-04T12:35:59.672Z,345
2016-06-04T12:37:02.378Z,300
2016-06-04T12:37:59.365Z,295
2016-06-04T12:39:02.305Z,305
2016-06-04T12:40:02.261Z,340
2016-06-04T12:41:08.248Z,320
2016-06-04T12:41:59.376Z,295
2016-06-04T12:43:05.004Z,320
2016-06-04T12:43:59.115Z,295
2016-06-04T12:44:59.071Z,320
2016-06-04T12:46:02.011Z,330
2016-06-04T12:47:02.030Z,320
2016-06-04T12:48:02.142Z,305
2016-06-04T12:49:02.129Z,285
2016-06-04T12:49:58.865Z,275
2016-06-04T12:50:59.025Z,255
2016-06-04T12:52:01.778Z,245
2016-06-04T12:53:01.967Z,240
2016-06-04T12:53:58.689Z,240
2016-06-04T12:54:58.645Z,245
2016-06-04T12:55:58.617Z,255
2016-06-04T12:56:58.712Z,240
2016-06-04T12:58:01.559Z,230
2016-06-04T12:59:01.922Z,240
2016-06-04T13:00:01.642Z,245
2016-06-04T13:00:58.677Z,245
2016-06-04T13:01:58.398Z,240
2016-06-04T13:03:01.401Z,235
2016-06-04T13:03:58.497Z,240
2016-06-04T13:05:10.328Z,250
2016-06-04T13:06:04.347Z,190
2016-06-04T13:07:04.208Z,140
2016-06-04T13:07:58.383Z,125
2016-06-04T13:08:58.135Z,125
2016-06-04T13:09:58.122Z,135
2016-06-04T13:10:57.875Z,155
2016-06-04T13:12:01.003Z,155
2016-06-04T13:12:59.303Z,205
2016-06-04T13:13:58.587Z,190
2016-06-04T13:14:57.854Z,165
2016-06-04T13:16:01.061Z,130
2016-06-04T13:16:57.798Z,105
2016-06-04T13:17:57.832Z,105
2016-06-04T13:19:00.694Z,130
2016-06-04T13:20:00.728Z,150
2016-06-04T13:21:00.651Z,230
2016-06-04T13:21:57.640Z,185
2016-06-04T13:23:00.548Z,250
2016-06-04T13:24:00.520Z,265
2016-06-04T13:24:57.647Z,280
2016-06-04T13:26:00.604Z,250
2016-06-04T13:27:02.090Z,230
2016-06-04T13:27:57.171Z,235
2016-06-04T13:29:00.345Z,215
2016-06-04T13:30:03.239Z,240
2016-06-04T13:31:00.242Z,235
2016-06-04T13:31:57.354Z,220
2016-06-04T13:32:57.153Z,250
2016-06-04T13:34:00.094Z,300
2016-06-04T13:34:57.456Z,285
2016-06-04T13:36:00.021Z,295
2016-06-04T13:37:00.242Z,305
2016-06-04T13:37:57.105Z,305
2016-06-04T13:38:59.951Z,295
2016-06-04T13:39:56.813Z,305
2016-06-04T13:40:59.643Z,300
2016-06-04T13:41:56.741Z,290
2016-06-04T13:43:03.571Z,280
2016-06-04T13:44:59.624Z,285
2016-06-04T13:45:59.594Z,285
2016-06-04T13:46:56.566Z,285
2016-06-04T13:47:59.522Z,285
2016-06-04T13:49:02.477Z,295
2016-06-04T13:50:08.652Z,305
2016-06-04T13:51:02.390Z,315
2016-06-04T13:51:59.548Z,325
2016-06-04T13:53:02.176Z,335
2016-06-04T13:54:05.460Z,325
2016-06-04T13:55:02.212Z,310
2016-06-04T13:55:59.684Z,280
2016-06-04T13:56:56.171Z,230
2016-06-04T13:57:59.268Z,255
2016-06-04T13:58:58.989Z,230
2016-06-04T13:59:56.617Z,215
2016-06-04T14:00:55.994Z,210
2016-06-04T14:01:59.137Z,215
2016-06-04T14:03:02.109Z,215
2016-06-04T14:03:59.097Z,215
2016-06-04T14:04:58.817Z,220
2016-06-04T14:05:55.961Z,230
2016-06-04T14:07:04.745Z,230
2016-06-04T14:07:55.670Z,225
2016-06-04T14:08:55.860Z,220
2016-06-04T14:09:58.800Z,220
2016-06-04T14:11:04.599Z,230